Terminal Aerodrome Forecast
Issued by NWS Paducah, KY

Home | Current Version | Previous Version | Graphics & Text | Print | Product List | Glossary On
Versions: 1 2 3 4 5 6 7 8 9 10 11 12 13
000
FTUS43 KPAH 262325
TAFPAH
TAF
KPAH 262325Z 2700/2724 VRB02KT P6SM SKC
      TEMPO 2709/2713 00000KT 4SM BR
     FM271500 06005KT P6SM FEW050=

USA.gov is the U.S. government's official web portal to all federal, state and local government web resources and services.